createdAt,value
2022-07-31T00:02:08.235Z,24.67
2022-07-31T00:04:35.250Z,24.58
2022-07-31T00:07:02.428Z,23.98
2022-07-31T00:09:53.153Z,23.85
2022-07-31T00:12:17.352Z,23.90
2022-07-31T00:14:44.430Z,24.33
2022-07-31T00:17:11.256Z,24.27
2022-07-31T00:19:38.134Z,23.88
2022-07-31T00:22:05.597Z,23.35
2022-07-31T00:24:32.345Z,23.27
2022-07-31T00:26:59.502Z,23.45
2022-07-31T00:29:26.420Z,23.67
2022-07-31T00:31:53.258Z,23.77
2022-07-31T00:34:20.048Z,22.98
2022-07-31T00:36:46.794Z,22.95
2022-07-31T00:39:13.484Z,22.50
2022-07-31T00:41:45.420Z,23.17
2022-07-31T00:44:13.737Z,23.25
2022-07-31T00:46:42.053Z,23.63
2022-07-31T00:49:12.917Z,22.50
2022-07-31T00:51:40.657Z,22.67
2022-07-31T00:54:10.337Z,22.73
2022-07-31T00:59:10.444Z,22.80
2022-07-31T01:01:37.188Z,22.40
2022-07-31T01:04:03.962Z,22.48
2022-07-31T01:06:30.632Z,22.45
2022-07-31T01:08:57.572Z,23.77
2022-07-31T01:11:38.431Z,24.15
2022-07-31T01:14:08.110Z,23.20
2022-07-31T01:16:37.909Z,22.73
2022-07-31T01:19:06.020Z,23.20
2022-07-31T01:21:49.361Z,22.05
2022-07-31T01:24:54.952Z,22.73
2022-07-31T01:27:49.154Z,22.35
2022-07-31T01:30:17.571Z,22.02
2022-07-31T01:32:51.372Z,22.30
2022-07-31T01:35:26.917Z,22.15
2022-07-31T01:40:31.444Z,21.98
2022-07-31T01:43:06.336Z,21.75
2022-07-31T01:45:34.970Z,21.20
2022-07-31T01:48:04.633Z,22.02
2022-07-31T01:50:42.255Z,21.65
2022-07-31T01:53:15.995Z,21.33
2022-07-31T01:56:02.022Z,21.77
2022-07-31T01:58:37.824Z,21.23
2022-07-31T02:03:44.296Z,21.95
2022-07-31T02:06:17.043Z,21.63
2022-07-31T02:08:49.951Z,21.23
2022-07-31T02:11:19.751Z,21.60
2022-07-31T02:13:48.383Z,22.17
2022-07-31T02:16:17.495Z,22.25
2022-07-31T02:18:47.744Z,21.40
2022-07-31T02:21:19.798Z,21.48
2022-07-31T02:23:46.634Z,22.55
2022-07-31T02:26:16.839Z,22.40
2022-07-31T02:28:46.654Z,21.95
2022-07-31T02:31:16.723Z,22.17
2022-07-31T02:33:47.912Z,22.00
2022-07-31T02:36:19.932Z,21.15
2022-07-31T02:38:48.313Z,21.55
2022-07-31T02:41:17.214Z,20.35
2022-07-31T02:43:46.555Z,20.70
2022-07-31T02:46:20.449Z,21.27
2022-07-31T02:48:49.358Z,20.67
2022-07-31T02:51:17.445Z,20.70
2022-07-31T02:53:44.583Z,21.25
2022-07-31T02:56:11.985Z,22.02
2022-07-31T02:58:41.940Z,21.42
2022-07-31T03:01:14.406Z,21.30
2022-07-31T03:03:43.002Z,22.58
2022-07-31T03:06:11.162Z,22.40
2022-07-31T03:08:38.438Z,23.25
2022-07-31T03:11:05.854Z,22.33
2022-07-31T03:13:34.966Z,23.58
2022-07-31T03:16:04.130Z,22.95
2022-07-31T03:18:31.730Z,22.75
2022-07-31T03:20:58.566Z,23.15
2022-07-31T03:23:27.253Z,21.80
2022-07-31T03:26:00.245Z,20.75
2022-07-31T03:28:28.273Z,21.05
2022-07-31T03:30:56.717Z,21.20
2022-07-31T03:33:25.910Z,22.08
2022-07-31T03:35:53.219Z,22.60
2022-07-31T03:38:38.912Z,21.00
2022-07-31T03:41:08.312Z,21.85
2022-07-31T03:43:47.188Z,20.23
2022-07-31T03:46:20.446Z,19.65
2022-07-31T03:48:48.281Z,20.05
2022-07-31T03:51:16.142Z,20.10
2022-07-31T03:53:44.391Z,20.35
2022-07-31T03:56:24.823Z,20.30
2022-07-31T03:58:52.636Z,17.45
2022-07-31T04:01:21.069Z,17.95
2022-07-31T04:03:58.396Z,18.65
2022-07-31T04:06:31.160Z,17.63
2022-07-31T04:09:01.452Z,16.73
2022-07-31T04:11:40.515Z,16.77
2022-07-31T04:14:08.107Z,16.38
2022-07-31T04:16:35.055Z,16.58
2022-07-31T04:19:01.815Z,17.80
2022-07-31T04:21:29.295Z,19.73
2022-07-31T04:23:56.035Z,18.70
2022-07-31T04:26:35.060Z,18.48
2022-07-31T04:29:02.515Z,17.73
2022-07-31T04:31:29.922Z,17.52
2022-07-31T04:33:57.231Z,16.90
2022-07-31T04:36:30.137Z,17.60
2022-07-31T04:41:27.303Z,18.55
2022-07-31T04:43:54.363Z,18.77
2022-07-31T04:46:21.225Z,19.20
2022-07-31T04:48:49.290Z,18.67
2022-07-31T04:51:23.303Z,19.70
2022-07-31T04:53:51.193Z,18.77
2022-07-31T04:56:38.999Z,18.75
2022-07-31T04:59:17.363Z,19.40
2022-07-31T05:01:47.954Z,19.05
2022-07-31T05:04:17.573Z,19.27
2022-07-31T05:06:46.179Z,18.45
2022-07-31T05:09:19.158Z,17.05
2022-07-31T05:11:48.256Z,18.30
2022-07-31T05:14:17.461Z,18.60
2022-07-31T05:16:44.720Z,19.67
2022-07-31T05:19:13.621Z,18.27
2022-07-31T05:21:53.759Z,19.75
2022-07-31T05:24:42.979Z,20.67
2022-07-31T05:27:12.780Z,20.40
2022-07-31T05:29:41.657Z,21.05
2022-07-31T05:32:08.855Z,21.08
2022-07-31T05:34:37.052Z,21.33
2022-07-31T05:37:04.403Z,22.15
2022-07-31T05:39:32.894Z,22.65
2022-07-31T05:45:09.727Z,21.80
2022-07-31T05:47:39.801Z,20.80
2022-07-31T05:50:09.243Z,19.60
2022-07-31T05:52:35.957Z,20.33
2022-07-31T05:55:18.899Z,20.33
2022-07-31T05:58:05.913Z,19.40
2022-07-31T06:00:32.773Z,19.90
2022-07-31T06:03:00.423Z,20.20
2022-07-31T06:05:45.780Z,22.00
2022-07-31T06:08:12.600Z,21.58
2022-07-31T06:10:43.289Z,20.15
2022-07-31T06:13:11.717Z,19.50
2022-07-31T06:15:39.102Z,20.15
2022-07-31T06:18:12.980Z,20.08
2022-07-31T06:20:39.711Z,20.85
2022-07-31T06:23:22.569Z,20.38
2022-07-31T06:26:00.052Z,21.85
2022-07-31T06:28:47.954Z,20.63
2022-07-31T06:31:19.180Z,20.80
2022-07-31T06:33:48.242Z,20.95
2022-07-31T06:36:16.991Z,20.95
2022-07-31T06:38:56.829Z,20.38
2022-07-31T06:41:44.552Z,19.38
2022-07-31T06:44:30.765Z,19.88
2022-07-31T06:47:17.674Z,19.17
2022-07-31T06:50:03.983Z,19.95
2022-07-31T06:52:37.690Z,19.67
2022-07-31T06:55:06.962Z,20.48
2022-07-31T06:57:34.078Z,20.30
2022-07-31T07:00:05.501Z,19.85
2022-07-31T07:02:34.928Z,19.67
2022-07-31T07:05:05.940Z,20.63
2022-07-31T07:07:37.825Z,20.30
2022-07-31T07:10:07.393Z,20.38
2022-07-31T07:13:03.302Z,22.08
2022-07-31T07:15:34.523Z,20.98
2022-07-31T07:18:01.352Z,20.35
2022-07-31T07:20:39.119Z,19.73
2022-07-31T07:23:05.999Z,20.52
2022-07-31T07:25:48.058Z,20.65
2022-07-31T07:28:30.755Z,19.88
2022-07-31T07:31:01.467Z,21.20
2022-07-31T07:33:41.682Z,21.17
2022-07-31T07:36:24.064Z,20.80
2022-07-31T07:38:56.495Z,21.55
2022-07-31T07:41:25.075Z,21.05
2022-07-31T07:43:52.910Z,21.33
2022-07-31T07:46:24.185Z,21.88
2022-07-31T07:48:55.359Z,21.38
2022-07-31T07:51:59.703Z,21.50
2022-07-31T07:54:49.917Z,21.65
2022-07-31T08:00:08.026Z,21.20
2022-07-31T08:03:46.698Z,19.75
2022-07-31T08:05:34.222Z,20.90
2022-07-31T08:08:01.079Z,21.80
2022-07-31T08:11:04.732Z,21.48
2022-07-31T08:13:52.765Z,22.38
2022-07-31T08:16:37.960Z,22.25
2022-07-31T08:19:06.508Z,22.17
2022-07-31T08:21:35.316Z,21.05
2022-07-31T08:24:02.298Z,22.00
2022-07-31T08:26:52.171Z,22.20
2022-07-31T08:29:19.149Z,21.50
2022-07-31T08:32:03.407Z,21.52
2022-07-31T08:34:50.458Z,21.48
2022-07-31T08:37:52.025Z,22.23
2022-07-31T08:40:06.585Z,21.55
2022-07-31T08:42:37.586Z,21.70
2022-07-31T08:45:08.746Z,20.67
2022-07-31T08:47:44.599Z,23.08
2022-07-31T08:50:15.507Z,22.08
2022-07-31T08:52:45.534Z,22.00
2022-07-31T08:55:24.654Z,21.25
2022-07-31T08:58:08.901Z,21.92
2022-07-31T09:00:35.688Z,20.35
2022-07-31T09:03:03.317Z,21.65
2022-07-31T09:05:52.241Z,22.05
2022-07-31T09:08:19.596Z,21.65
2022-07-31T09:10:50.382Z,21.40
2022-07-31T09:13:19.132Z,22.55
2022-07-31T09:15:47.433Z,21.33
2022-07-31T09:18:21.938Z,21.23
2022-07-31T09:21:04.248Z,21.50
2022-07-31T09:23:34.046Z,21.33
2022-07-31T09:26:05.712Z,21.15
2022-07-31T09:28:41.878Z,20.77
2022-07-31T09:31:10.668Z,20.90
2022-07-31T09:33:49.279Z,22.25
2022-07-31T09:36:35.993Z,21.38
2022-07-31T09:39:29.461Z,21.23
2022-07-31T09:42:16.886Z,21.13
2022-07-31T09:44:59.425Z,20.80
2022-07-31T09:47:31.998Z,20.65
2022-07-31T09:50:06.036Z,20.73
2022-07-31T09:52:33.508Z,20.88
2022-07-31T09:55:16.087Z,21.23
2022-07-31T09:57:53.223Z,22.20
2022-07-31T10:00:21.810Z,21.92
2022-07-31T10:02:50.074Z,20.63
2022-07-31T10:05:18.171Z,20.35
2022-07-31T10:07:47.596Z,21.05
2022-07-31T10:10:23.236Z,20.33
2022-07-31T10:13:23.797Z,20.88
2022-07-31T10:15:54.124Z,23.67
2022-07-31T10:18:45.854Z,22.38
2022-07-31T10:21:39.989Z,24.50
2022-07-31T10:24:11.172Z,23.48
2022-07-31T10:26:59.747Z,22.70
2022-07-31T10:29:27.076Z,21.35
2022-07-31T10:32:00.574Z,21.02
2022-07-31T10:34:28.768Z,21.27
2022-07-31T10:37:20.141Z,22.00
2022-07-31T10:40:15.663Z,21.13
2022-07-31T10:43:03.418Z,21.80
2022-07-31T10:45:31.699Z,21.92
2022-07-31T10:48:18.366Z,21.15
2022-07-31T10:51:07.223Z,21.95
2022-07-31T10:54:05.537Z,21.02
2022-07-31T10:56:58.663Z,21.20
2022-07-31T10:59:44.871Z,21.88
2022-07-31T11:02:31.752Z,21.80
2022-07-31T11:05:14.900Z,21.90
2022-07-31T11:08:11.206Z,20.38
2022-07-31T11:11:00.765Z,21.42
2022-07-31T11:13:50.482Z,21.65
2022-07-31T11:16:34.688Z,21.33
2022-07-31T11:19:20.338Z,21.20
2022-07-31T11:21:47.436Z,20.92
2022-07-31T11:24:22.144Z,20.40
2022-07-31T11:26:52.451Z,21.80
2022-07-31T11:30:00.249Z,21.63
2022-07-31T11:32:30.721Z,21.50
2022-07-31T11:34:57.598Z,21.00
2022-07-31T11:37:44.078Z,20.80
2022-07-31T11:40:13.846Z,21.35
2022-07-31T11:42:43.619Z,20.63
2022-07-31T11:45:12.520Z,21.23
2022-07-31T11:48:12.478Z,21.77
2022-07-31T11:50:55.592Z,22.42
2022-07-31T11:53:22.568Z,22.15
2022-07-31T11:55:58.901Z,22.02
2022-07-31T11:58:27.658Z,22.20
2022-07-31T12:01:00.205Z,21.65
2022-07-31T12:03:37.839Z,22.67
2022-07-31T12:06:06.327Z,22.45
2022-07-31T12:08:35.226Z,22.75
2022-07-31T12:11:04.204Z,22.85
2022-07-31T12:13:32.177Z,22.13
2022-07-31T12:16:00.272Z,22.77
2022-07-31T12:18:32.900Z,24.27
2022-07-31T12:21:04.603Z,22.67
2022-07-31T12:23:42.187Z,22.45
2022-07-31T12:26:12.822Z,21.83
2022-07-31T12:28:40.655Z,22.10
2022-07-31T12:31:07.389Z,22.33
2022-07-31T12:33:42.538Z,21.50
2022-07-31T12:36:14.635Z,22.00
2022-07-31T12:38:45.068Z,21.95
2022-07-31T12:41:15.253Z,22.40
2022-07-31T12:43:51.036Z,23.50
2022-07-31T12:46:35.647Z,22.15
2022-07-31T12:49:03.805Z,23.88
2022-07-31T12:51:45.309Z,26.15
2022-07-31T12:54:16.153Z,23.42
2022-07-31T12:56:43.684Z,23.02
2022-07-31T12:59:10.994Z,21.55
2022-07-31T13:01:38.126Z,22.77
2022-07-31T13:04:07.698Z,22.73
2022-07-31T13:06:37.374Z,22.65
2022-07-31T13:09:04.728Z,23.15
2022-07-31T13:11:45.942Z,23.17
2022-07-31T13:14:19.589Z,23.27
2022-07-31T13:16:47.244Z,23.20
2022-07-31T13:19:14.856Z,21.90
2022-07-31T13:21:49.223Z,22.13
2022-07-31T13:24:21.058Z,23.38
2022-07-31T13:26:48.940Z,21.65
2022-07-31T13:29:16.055Z,21.05
2022-07-31T13:31:44.055Z,21.13
2022-07-31T13:34:11.222Z,22.50
2022-07-31T13:36:45.713Z,21.17
2022-07-31T13:39:12.480Z,20.20
2022-07-31T13:41:39.820Z,20.50
2022-07-31T13:44:07.361Z,20.63
2022-07-31T13:46:34.152Z,21.05
2022-07-31T13:49:02.256Z,22.63
2022-07-31T13:51:29.556Z,22.45
2022-07-31T13:53:56.576Z,23.00
2022-07-31T13:56:39.485Z,21.48
2022-07-31T13:59:13.899Z,22.13
2022-07-31T14:02:03.659Z,22.00
2022-07-31T14:04:32.829Z,21.50
2022-07-31T14:07:06.760Z,21.55
2022-07-31T14:09:37.393Z,22.60
2022-07-31T14:12:05.579Z,21.02
2022-07-31T14:14:32.785Z,20.05
2022-07-31T14:16:59.587Z,20.80
2022-07-31T14:19:26.448Z,20.70
2022-07-31T14:21:57.006Z,20.38
2022-07-31T14:24:25.689Z,20.25
2022-07-31T14:26:52.457Z,20.42
2022-07-31T14:29:19.678Z,20.55
2022-07-31T14:31:46.436Z,20.05
2022-07-31T14:34:13.184Z,20.65
2022-07-31T14:36:40.238Z,20.48
2022-07-31T14:39:07.005Z,20.42
2022-07-31T14:41:33.701Z,21.08
2022-07-31T14:44:00.465Z,21.40
2022-07-31T14:46:27.169Z,21.63
2022-07-31T14:48:54.045Z,20.35
2022-07-31T14:51:24.093Z,20.08
2022-07-31T14:53:52.283Z,20.75
2022-07-31T14:56:39.378Z,21.60
2022-07-31T14:59:08.919Z,20.70
2022-07-31T15:01:35.712Z,21.02
2022-07-31T15:04:02.782Z,22.48
2022-07-31T15:06:48.730Z,22.88
2022-07-31T15:09:19.774Z,22.58
2022-07-31T15:12:00.027Z,20.63
2022-07-31T15:14:29.894Z,20.90
2022-07-31T15:16:57.108Z,21.30
2022-07-31T15:19:24.115Z,22.15
2022-07-31T15:22:16.667Z,23.23
2022-07-31T15:24:42.350Z,21.73
2022-07-31T15:27:12.657Z,21.90
2022-07-31T15:30:03.794Z,20.60
2022-07-31T15:32:26.672Z,20.27
2022-07-31T15:34:53.539Z,19.85
2022-07-31T15:37:20.678Z,21.80
2022-07-31T15:40:02.657Z,18.70
2022-07-31T15:42:37.557Z,20.67
2022-07-31T15:45:04.930Z,19.98
2022-07-31T15:47:31.670Z,20.85
2022-07-31T15:49:58.686Z,21.58
2022-07-31T15:52:25.607Z,22.23
2022-07-31T15:54:52.860Z,22.00
2022-07-31T15:57:23.872Z,23.92
2022-07-31T15:59:54.360Z,22.48
2022-07-31T16:02:22.576Z,23.10
2022-07-31T16:04:53.120Z,23.25
2022-07-31T16:08:32.245Z,22.33
2022-07-31T16:10:17.662Z,22.95
2022-07-31T16:12:48.761Z,23.10
2022-07-31T16:15:17.132Z,23.67
2022-07-31T16:17:44.465Z,22.08
2022-07-31T16:20:26.458Z,23.17
2022-07-31T16:23:00.827Z,22.10
2022-07-31T16:25:29.572Z,23.02
2022-07-31T16:27:59.117Z,24.02
2022-07-31T16:30:27.216Z,23.13
2022-07-31T16:32:54.901Z,23.50
2022-07-31T16:35:21.887Z,23.73
2022-07-31T16:37:50.518Z,22.50
2022-07-31T16:40:30.861Z,22.67
2022-07-31T16:43:48.555Z,22.63
2022-07-31T16:45:50.800Z,21.92
2022-07-31T16:48:19.886Z,21.88
2022-07-31T16:50:52.964Z,21.90
2022-07-31T16:54:10.073Z,22.33
2022-07-31T16:56:14.747Z,22.00
2022-07-31T16:58:42.049Z,21.27
2022-07-31T17:01:57.725Z,20.42
2022-07-31T17:04:00.789Z,21.15
2022-07-31T17:06:36.092Z,21.80
2022-07-31T17:09:16.188Z,21.60
2022-07-31T17:11:47.347Z,20.73
2022-07-31T17:14:14.521Z,21.20
2022-07-31T17:16:46.427Z,21.25
2022-07-31T17:19:13.805Z,21.42
2022-07-31T17:21:43.936Z,20.80
2022-07-31T17:24:12.708Z,21.02
2022-07-31T17:26:43.798Z,20.92
2022-07-31T17:29:10.967Z,21.60
2022-07-31T17:31:37.936Z,19.90
2022-07-31T17:34:09.060Z,19.63
2022-07-31T17:36:36.380Z,19.70
2022-07-31T17:39:04.190Z,20.00
2022-07-31T17:41:31.135Z,20.85
2022-07-31T17:43:57.875Z,20.38
2022-07-31T17:46:34.472Z,20.55
2022-07-31T17:49:08.270Z,21.13
2022-07-31T17:51:35.169Z,22.20
2022-07-31T17:54:02.113Z,20.88
2022-07-31T17:56:29.900Z,20.23
2022-07-31T17:59:03.623Z,20.05
2022-07-31T18:01:30.623Z,20.08
2022-07-31T18:03:57.440Z,19.95
2022-07-31T18:06:26.975Z,19.70
2022-07-31T18:08:54.319Z,20.48
2022-07-31T18:11:21.485Z,20.35
2022-07-31T18:13:51.709Z,20.08
2022-07-31T18:16:22.847Z,19.38
2022-07-31T18:18:54.175Z,19.85
2022-07-31T18:21:21.582Z,17.90
2022-07-31T18:23:48.375Z,17.95
2022-07-31T18:26:15.407Z,19.15
2022-07-31T18:28:42.676Z,18.90
2022-07-31T18:31:24.124Z,16.27
2022-07-31T18:33:56.296Z,15.07
2022-07-31T18:36:23.159Z,12.15
2022-07-31T18:38:51.843Z,10.30
2022-07-31T18:41:24.886Z,9.90
2022-07-31T18:43:51.908Z,9.48
2022-07-31T18:46:19.999Z,8.50
2022-07-31T18:48:47.632Z,8.35
2022-07-31T18:51:17.095Z,9.80
2022-07-31T18:53:44.011Z,9.45
2022-07-31T18:56:11.231Z,8.93
2022-07-31T18:58:38.011Z,8.98
2022-07-31T19:01:04.734Z,10.68
2022-07-31T19:03:31.456Z,11.00
2022-07-31T19:05:58.554Z,10.52
2022-07-31T19:08:25.285Z,10.45
2022-07-31T19:10:53.589Z,10.20
2022-07-31T19:13:21.126Z,10.75
2022-07-31T19:15:49.066Z,10.85
2022-07-31T19:18:16.052Z,12.00
2022-07-31T19:21:00.152Z,13.80
2022-07-31T19:23:34.011Z,12.90
2022-07-31T19:26:03.507Z,12.10
2022-07-31T19:28:36.654Z,10.50
2022-07-31T19:31:03.533Z,14.07
2022-07-31T19:33:30.615Z,17.10
2022-07-31T19:36:01.929Z,17.92
2022-07-31T19:38:33.714Z,23.25
2022-07-31T19:41:00.896Z,18.23
2022-07-31T19:43:28.819Z,20.92
2022-07-31T19:45:58.816Z,13.98
2022-07-31T19:48:40.322Z,14.20
2022-07-31T19:51:07.090Z,17.33
2022-07-31T19:53:33.832Z,19.23
2022-07-31T19:56:05.168Z,21.35
2022-07-31T19:58:36.096Z,18.92
2022-07-31T20:01:06.185Z,17.75
2022-07-31T20:03:33.549Z,20.50
2022-07-31T20:06:01.116Z,20.08
2022-07-31T20:08:29.645Z,18.85
2022-07-31T20:11:02.921Z,17.35
2022-07-31T20:13:30.345Z,18.27
2022-07-31T20:15:58.261Z,17.08
2022-07-31T20:18:29.046Z,16.48
2022-07-31T20:21:02.473Z,16.48
2022-07-31T20:23:30.848Z,15.95
2022-07-31T20:25:58.670Z,16.85
2022-07-31T20:28:26.257Z,17.52
2022-07-31T20:30:53.466Z,16.77
2022-07-31T20:33:21.288Z,19.67
2022-07-31T20:35:50.125Z,19.95
2022-07-31T20:38:21.991Z,20.60
2022-07-31T20:40:53.739Z,21.42
2022-07-31T20:43:28.167Z,21.73
2022-07-31T20:45:59.252Z,24.67
2022-07-31T20:48:31.808Z,23.85
2022-07-31T20:51:03.954Z,26.75
2022-07-31T20:53:31.820Z,25.80
2022-07-31T20:55:59.077Z,23.80
2022-07-31T20:58:26.360Z,21.10
2022-07-31T21:00:53.900Z,20.77
2022-07-31T21:03:20.879Z,20.30
2022-07-31T21:05:48.482Z,18.63
2022-07-31T21:08:17.778Z,17.63
2022-07-31T21:10:44.769Z,18.25
2022-07-31T21:13:12.194Z,18.02
2022-07-31T21:15:41.987Z,16.02
2022-07-31T21:18:18.336Z,15.95
2022-07-31T21:20:50.702Z,16.45
2022-07-31T21:23:23.588Z,19.02
2022-07-31T21:25:56.104Z,19.10
2022-07-31T21:28:24.844Z,19.33
2022-07-31T21:30:53.878Z,17.77
2022-07-31T21:33:21.668Z,20.73
2022-07-31T21:35:48.727Z,20.45
2022-07-31T21:38:15.986Z,19.13
2022-07-31T21:40:43.715Z,18.90
2022-07-31T21:43:11.719Z,20.17
2022-07-31T21:45:55.451Z,18.65
2022-07-31T21:48:25.901Z,17.90
2022-07-31T21:50:55.180Z,19.10
2022-07-31T21:53:22.277Z,20.90
2022-07-31T21:55:49.608Z,21.27
2022-07-31T21:58:16.969Z,23.27
2022-07-31T22:00:44.018Z,23.38
2022-07-31T22:03:11.011Z,22.30
2022-07-31T22:05:56.335Z,22.63
2022-07-31T22:08:23.015Z,24.05
2022-07-31T22:10:51.195Z,22.08
2022-07-31T22:13:18.758Z,22.98
2022-07-31T22:15:58.630Z,22.48
2022-07-31T22:18:36.482Z,22.50
2022-07-31T22:21:05.889Z,23.58
2022-07-31T22:23:33.089Z,22.92
2022-07-31T22:26:00.266Z,25.48
2022-07-31T22:28:28.254Z,24.77
2022-07-31T22:30:55.930Z,26.65
2022-07-31T22:33:23.541Z,27.05
2022-07-31T22:35:59.586Z,28.15
2022-07-31T22:38:29.897Z,26.38
2022-07-31T22:40:58.550Z,25.48
2022-07-31T22:44:12.726Z,26.83
2022-07-31T22:46:12.662Z,29.10
2022-07-31T22:48:40.715Z,33.13
2022-07-31T22:51:09.078Z,33.90
2022-07-31T22:53:39.559Z,31.33
2022-07-31T22:56:06.299Z,24.98
2022-07-31T22:58:33.378Z,26.20
2022-07-31T23:01:00.144Z,24.80
2022-07-31T23:03:26.850Z,23.75
2022-07-31T23:06:13.135Z,26.15
2022-07-31T23:08:41.057Z,26.52
2022-07-31T23:11:07.780Z,26.73
2022-07-31T23:13:34.446Z,25.83
2022-07-31T23:16:01.271Z,26.63
2022-07-31T23:18:28.003Z,25.33
2022-07-31T23:20:54.657Z,28.17
2022-07-31T23:23:21.346Z,32.50
2022-07-31T23:25:48.105Z,33.88
2022-07-31T23:28:14.814Z,35.95
2022-07-31T23:30:41.531Z,33.22
2022-07-31T23:33:08.207Z,37.00
2022-07-31T23:35:34.954Z,33.53
2022-07-31T23:38:01.652Z,32.05
2022-07-31T23:40:28.392Z,25.20
2022-07-31T23:42:55.099Z,30.42
2022-07-31T23:45:23.329Z,27.80
2022-07-31T23:47:50.509Z,31.50
2022-07-31T23:50:17.297Z,31.65
2022-07-31T23:52:47.600Z,31.88
2022-07-31T23:55:14.448Z,35.03
2022-07-31T23:57:41.218Z,33.55
